Jazz CRJ2 at Bagotville on Feb 8th 2019, runway excursion after landing

Last Update: February 20, 2019 / 22:08:39 GMT/Zulu time

Bookmark this article
Incident Facts

Date of incident
Feb 8, 2019

Classification
Incident

Flight number
QK-8682

Aircraft Registration
C-GUJA

ICAO Type Designator
CRJ2

Airport ICAO Code
CYBG

A Jazz Canadair CRJ-200, registration C-GUJA performing flight QK-8682/AC-8682 from Montreal,QC to Bagotville,QC (Canada) with 42 passengers and 4 crew, landed on Bagotville's runway 11 at 09:43L (14:43Z), vacated the runway onto runway 36 and was about to join taxiway H when the aircraft skidded off the paved surfaces and came to a stop with all gear on soft ground. There were no injuries, the aircraft sustained minor if any damage.

On Feb 20th 2019 the TSB reported the aircraft landed on runway 11, vacated onto runway 36 and was about to turn off runway 36 onto taxiway H at about 8-10 knots, when the aircraft skidded causing the nose wheel to depart paved surface. There were no injuries, the aircraft did not sustain any damage. The crew had been advised that that surface was slippery.

Related NOTAM:
!YBG 01/020 YBG CYBG RWY 18/36 CLSD. DRILLING BY RWY EDGES. NORTH PORTION AVBL AS TWY 1901311720-1902082359

Metars:
CYBG 081600Z 11010KT 20SM BKN030 02/00 A2933 RMK SC6 SLP941=
CYBG 081538Z 09012G18KT 20SM SCT030 BKN050 BKN080 02/M00 A2933 RMK SC4SC2AC1 SLP943=
CYBG 081500Z 09014KT 20SM -SHRA BKN030 BKN050 OVC080 01/M01 A2935 RMK SC5SC2AC2 SLP947=
CYBG 081430Z 09018KT 20SM -SHRA BKN030 BKN050 OVC090 00/M01 A2936 RMK SC5SC2AC1 SLP951=
CYBG 081400Z 09019G26KT 20SM -FZRA BKN030 OVC050 M00/M01 A2937 RMK SC5SC3 SLP956=
CYBG 081300Z 09021G26KT 25SM FEW030 BKN050 OVC090 M01/M02 A2938 RMK SC2SC5AC1 SLP960=
CYBG 081200Z 09025G31KT 25SM BKN050 OVC090 M02/M03 A2941 RMK SC5AC3 SLP968=
CYBG 081100Z 10022G28KT 15SM BKN050 OVC090 M02/M03 A2945 RMK SC6AC2 PRESFR SLP984=
CYBG 081035Z 10021G27KT 12SM BKN045 OVC100 M02/M03 A2950 RMK SC6AC2 PRESFR SLP001=
CYBG 081000Z 10019G24KT 10SM -FZRA SCT058 OVC100 M03/M03 A2954 RMK SC4AC4 PRESFR PCPN VRY LGT SLP014=
Incident Facts

Date of incident
Feb 8, 2019

Classification
Incident

Flight number
QK-8682

Aircraft Registration
C-GUJA

ICAO Type Designator
CRJ2

Airport ICAO Code
CYBG

This article is published under license from Avherald.com. © of text by Avherald.com.
Article source

You can read 4 more free articles without a subscription.

Subscribe now and continue reading without any limits!

Are you a subscriber?
Login
Subscribe

Read unlimited articles and receive our daily update briefing. Gain better insights into what is happening in commercial aviation safety.

Free newsletter

Want to know more and stay ahead? Get our free weekly newsletter and join 4774 existing subscribers.

By subscribing, you accept our terms and conditions and confirm that you've read our privacy policy.

Send tip

Support AeroInside by sending a small tip amount.

Related articles

Newest articles

Subscribe today

Are you researching aviation incidents? Get access to AeroInside Insights, unlimited read access and receive the daily newsletter.

Pick your plan and subscribe

Partner

Blockaviation logo

A new way to document and demonstrate airworthiness compliance and aircraft value. Find out more.

Virtual Speech logo

Train yourself online in VR with the special course for aviation: "Crisis Communications: Airlines". Find out more.

Get updates

Never miss an article from AeroInside. Subscribe to our free weekly newsletter and join 4774 existing subscribers.

By subscribing, you accept our terms and conditions and that you've read our privacy policy.

AeroInside Blog
Popular aircraft
Airbus A320
Boeing 737-800
Boeing 737-800 MAX
Popular airlines
American Airlines
United
Delta
Air Canada
Lufthansa
British Airways